Time;durP1;ratioP1;P1;durP2;ratioP2;P2;SDS_P1;SDS_P2;PMS_P1;PMS_P2;Temp;Humidity;BMP_temperature;BMP_pressure;BME280_temperature;BME280_humidity;BME280_pressure;Samples;Min_cycle;Max_cycle;Signal;HPM_P1;HPM_P2
2021/09/18 00:00:00;;;;;;;14.77;13.20;;;11.40;99.90;;;10.43;100.00;97907.75;5041031;28;20494;-77
2021/09/18 00:02:27;;;;;;;14.13;12.87;;;11.50;99.90;;;10.58;100.00;97909.31;5018113;28;20514;-77
2021/09/18 00:04:54;;;;;;;12.00;11.00;;;11.60;99.90;;;10.73;100.00;97906.28;5021903;28;20551;-77
2021/09/18 00:07:21;;;;;;;12.27;11.07;;;11.80;99.90;;;10.84;100.00;97910.16;5031421;28;20538;-77
2021/09/18 00:09:49;;;;;;;11.93;10.90;;;11.90;99.90;;;10.93;100.00;97906.13;5019378;28;20502;-77
2021/09/18 00:12:16;;;;;;;10.63;9.60;;;12.00;99.90;;;10.97;100.00;97901.94;5013006;28;20460;-77
2021/09/18 00:14:43;;;;;;;9.40;8.60;;;12.10;99.90;;;11.02;100.00;97898.56;5011107;28;20499;-77
2021/09/18 00:17:11;;;;;;;8.97;8.13;;;12.20;99.90;;;11.04;100.00;97894.63;5017820;28;20490;-78
2021/09/18 00:19:38;;;;;;;9.90;9.07;;;12.20;99.90;;;11.14;100.00;97891.41;5009062;28;20546;-78
2021/09/18 00:22:05;;;;;;;9.30;8.50;;;12.30;99.90;;;11.20;100.00;97897.81;5000885;28;20571;-76
2021/09/18 00:24:32;;;;;;;9.97;9.07;;;12.30;99.90;;;11.19;100.00;97893.44;5029107;28;20486;-78
2021/09/18 00:27:00;;;;;;;8.57;7.90;;;12.30;99.90;;;11.17;100.00;97898.25;5006237;28;20444;-78
2021/09/18 00:29:27;;;;;;;8.83;8.00;;;12.40;99.90;;;11.04;100.00;97897.31;5027234;28;20475;-77
2021/09/18 00:31:54;;;;;;;9.10;8.37;;;12.30;99.90;;;10.92;100.00;97901.78;5013023;28;20487;-78
2021/09/18 00:34:21;;;;;;;9.10;8.40;;;12.20;99.90;;;10.89;100.00;97904.94;5005768;28;20652;-79
2021/09/18 00:36:48;;;;;;;10.03;9.23;;;12.10;99.90;;;10.88;100.00;97906.78;5012466;28;21061;-81
2021/09/18 00:39:15;;;;;;;8.40;7.80;;;12.10;99.90;;;10.88;100.00;97903.28;5012896;28;20459;-77
2021/09/18 00:41:42;;;;;;;8.93;8.10;;;12.10;99.90;;;10.89;100.00;97913.03;5017467;28;20509;-78
2021/09/18 00:44:17;;;;;;;9.07;8.27;;;12.10;99.90;;;11.10;100.00;97901.00;5014394;28;20443;-77
2021/09/18 00:46:47;;;;;;;9.40;8.43;;;12.30;99.90;;;10.94;100.00;97904.28;5009900;28;21010;-76
2021/09/18 00:49:14;;;;;;;8.80;8.00;;;12.20;99.90;;;10.81;100.00;97911.44;4993107;28;21005;-76
2021/09/18 00:51:41;;;;;;;8.80;8.10;;;12.10;99.90;;;11.22;100.00;97924.59;5012486;28;20483;-77
2021/09/18 00:54:09;;;;;;;8.27;7.47;;;12.20;99.90;;;11.13;100.00;97919.50;5029133;28;21116;-76
2021/09/18 00:56:37;;;;;;;7.87;7.17;;;12.20;99.00;;;10.90;100.00;97920.91;5016549;28;20461;-77
2021/09/18 00:59:04;;;;;;;8.30;7.60;;;12.20;98.70;;;10.72;100.00;97908.19;5015999;28;20950;-77
2021/09/18 01:01:32;;;;;;;9.30;8.50;;;12.00;99.90;;;10.72;100.00;97919.00;5015380;28;21207;-77
2021/09/18 01:04:01;;;;;;;8.53;7.73;;;12.00;99.90;;;10.64;100.00;97916.53;5014573;28;20467;-78
2021/09/18 01:06:29;;;;;;;8.43;7.73;;;11.90;99.90;;;10.66;100.00;97913.63;5013375;28;20509;-77
2021/09/18 01:08:59;;;;;;;13.73;8.30;;;11.90;99.90;;;10.66;100.00;97909.03;5014043;28;20452;-77
2021/09/18 01:11:26;;;;;;;9.30;8.50;;;11.90;99.90;;;10.68;100.00;97912.34;5014296;28;20447;-78
2021/09/18 01:13:53;;;;;;;8.87;8.10;;;11.90;99.90;;;10.79;100.00;97908.13;5016802;28;20448;-76
2021/09/18 01:16:21;;;;;;;9.30;8.40;;;12.00;99.90;;;10.88;100.00;97911.38;5011809;28;20559;-76
2021/09/18 01:18:49;;;;;;;9.70;8.87;;;12.00;99.90;;;10.94;100.00;97910.50;5029066;28;20457;-79
2021/09/18 01:21:17;;;;;;;9.37;8.57;;;12.10;99.90;;;10.82;100.00;97880.66;5007672;28;20494;-78
2021/09/18 01:23:45;;;;;;;8.93;8.23;;;12.20;99.90;;;11.10;100.00;97902.88;5013524;28;21760;-79
2021/09/18 01:26:13;;;;;;;9.63;8.47;;;12.20;99.90;;;11.10;100.00;97900.16;5012964;28;20582;-79
2021/09/18 01:28:40;;;;;;;9.30;8.43;;;12.30;99.90;;;11.16;100.00;97912.81;5009308;28;20467;-78
2021/09/18 01:31:08;;;;;;;9.83;9.03;;;12.40;99.90;;;11.22;100.00;97911.94;5012545;28;20862;-78
2021/09/18 01:33:35;;;;;;;8.77;7.87;;;12.40;99.90;;;11.20;100.00;97909.44;5012596;28;20538;-79
2021/09/18 01:36:04;;;;;;;9.20;8.40;;;12.40;99.30;;;11.23;100.00;97908.16;5027290;28;20467;-75
2021/09/18 01:38:31;;;;;;;9.70;8.80;;;12.40;98.70;;;11.26;100.00;97906.91;5013630;28;20517;-78
2021/09/18 01:40:59;;;;;;;9.10;8.40;;;12.40;98.70;;;11.31;100.00;97909.75;5017590;28;20498;-77
2021/09/18 01:43:29;;;;;;;10.97;9.73;;;12.50;98.20;;;11.33;100.00;97908.50;5011388;28;20554;-77
2021/09/18 01:45:56;;;;;;;9.40;8.60;;;12.50;98.00;;;11.38;100.00;97915.09;5010348;28;20569;-77
2021/09/18 01:48:23;;;;;;;10.17;9.27;;;12.50;97.80;;;11.36;99.84;97906.41;5010762;28;20527;-78
2021/09/18 01:50:58;;;;;;;9.10;8.40;;;12.60;96.90;;;11.35;100.00;97905.56;5015799;28;20479;-77
2021/09/18 01:53:27;;;;;;;9.93;8.97;;;12.50;96.70;;;11.37;99.27;97906.16;5008837;28;20458;-78
2021/09/18 01:55:54;;;;;;;9.70;8.77;;;12.50;96.80;;;11.42;99.56;97903.63;5008123;28;20462;-77
2021/09/18 01:58:24;;;;;;;8.53;7.83;;;12.60;96.70;;;11.45;99.98;97900.47;5011794;28;21013;-77
2021/09/18 02:00:54;;;;;;;9.60;8.70;;;12.60;97.50;;;11.48;99.38;97893.78;5023222;28;20487;-76
2021/09/18 02:03:21;;;;;;;10.03;9.13;;;12.60;97.10;;;11.42;98.80;97898.22;5010419;28;20447;-75
2021/09/18 02:05:49;;;;;;;9.70;8.80;;;12.70;96.10;;;11.40;98.87;97902.19;5012050;28;20486;-76
2021/09/18 02:08:16;;;;;;;9.37;8.60;;;12.60;95.70;;;11.36;98.24;97906.41;5033121;28;20454;-78
2021/09/18 02:10:43;;;;;;;9.13;8.33;;;12.60;95.00;;;11.25;98.10;97910.66;5009014;28;20483;-76
2021/09/18 02:13:13;;;;;;;8.87;8.07;;;12.50;94.70;;;11.07;98.65;97901.47;5006494;28;20539;-76
2021/09/18 02:15:42;;;;;;;9.73;8.63;;;12.30;95.10;;;11.00;99.10;97896.13;5010863;28;20511;-77
2021/09/18 02:18:10;;;;;;;9.33;8.50;;;12.30;95.90;;;11.08;99.53;97905.81;5011566;28;20535;-77
2021/09/18 02:20:38;;;;;;;9.80;8.80;;;12.20;96.80;;;11.05;98.99;97907.09;5013501;28;20509;-77
2021/09/18 02:23:06;;;;;;;9.20;8.40;;;12.30;96.80;;;11.03;100.00;97901.06;5010212;28;20826;-78
2021/09/18 02:25:33;;;;;;;9.63;8.83;;;12.30;96.80;;;11.12;99.28;97896.22;5012328;28;20463;-77
2021/09/18 02:28:01;;;;;;;8.57;7.87;;;12.30;96.40;;;11.09;99.10;97902.06;5011352;28;20583;-79
2021/09/18 02:30:32;;;;;;;9.47;8.50;;;12.20;96.20;;;11.09;98.88;97906.63;5011192;28;20477;-78
2021/09/18 02:33:01;;;;;;;8.70;8.00;;;12.30;96.00;;;11.11;98.66;97899.13;5008252;28;20991;-77
2021/09/18 02:35:31;;;;;;;9.13;8.43;;;12.30;95.80;;;11.10;98.77;97902.88;5011581;28;20578;-79
2021/09/18 02:37:59;;;;;;;8.30;7.53;;;12.30;95.70;;;11.08;98.46;97896.88;5009462;28;20447;-78
2021/09/18 02:40:29;;;;;;;8.80;8.00;;;12.30;95.90;;;11.08;98.93;97897.72;5011530;28;21866;-78
2021/09/18 02:42:59;;;;;;;10.23;9.23;;;12.30;96.00;;;11.08;98.70;97889.59;5033762;28;20468;-78
2021/09/18 02:45:26;;;;;;;9.00;8.20;;;12.30;96.00;;;11.16;98.99;97891.19;5014813;28;20494;-78
2021/09/18 02:47:53;;;;;;;10.17;9.17;;;12.30;96.30;;;11.24;98.51;97893.59;5014129;28;20509;-77
2021/09/18 02:50:24;;;;;;;9.13;8.23;;;12.30;96.30;;;11.31;98.82;97894.38;5017612;28;20451;-77
2021/09/18 02:52:51;;;;;;;9.30;8.43;;;12.40;96.30;;;11.33;98.47;97886.00;5029092;28;20448;-78
2021/09/18 02:55:18;;;;;;;8.60;7.73;;;12.50;96.20;;;11.42;100.00;97881.97;5025218;28;20490;-78
2021/09/18 02:57:45;;;;;;;8.07;7.30;;;12.50;97.70;;;11.50;100.00;97880.84;5028288;28;20811;-78
2021/09/18 03:00:14;;;;;;;8.70;7.90;;;12.60;99.00;;;11.55;99.01;97870.19;5032029;28;20458;-79
2021/09/18 03:02:42;;;;;;;8.50;7.70;;;12.70;97.40;;;11.64;99.37;97878.81;5027198;28;20961;-77
2021/09/18 03:05:10;;;;;;;9.43;8.63;;;12.70;98.10;;;11.69;99.75;97872.72;5020610;28;20546;-77
2021/09/18 03:07:39;;;;;;;9.90;9.00;;;12.80;98.30;;;11.65;99.62;97876.94;5014366;28;20455;-79
2021/09/18 03:10:09;;;;;;;9.20;8.30;;;12.80;97.20;;;11.59;98.75;97875.97;5030413;28;20482;-77
2021/09/18 03:12:36;;;;;;;9.83;9.03;;;12.80;95.90;;;11.47;97.69;97875.91;5012899;28;20501;-78
2021/09/18 03:15:04;;;;;;;9.37;8.60;;;12.70;94.80;;;11.37;97.92;97879.09;5020680;28;20574;-82
2021/09/18 03:17:32;;;;;;;9.60;8.90;;;12.60;94.50;;;11.29;98.13;97882.94;5019852;28;20491;-77
2021/09/18 03:19:59;;;;;;;9.40;8.60;;;12.50;95.30;;;11.28;99.25;97878.56;5021038;28;20487;-77
2021/09/18 03:22:26;;;;;;;9.30;8.50;;;12.50;96.00;;;11.26;98.50;97875.25;5015030;28;20789;-77
2021/09/18 03:24:54;;;;;;;8.43;7.63;;;12.50;95.60;;;11.22;98.07;97867.81;5017366;28;20534;-77
2021/09/18 03:27:21;;;;;;;8.37;7.57;;;12.50;95.40;;;11.25;98.26;97873.63;5018821;28;20555;-78
2021/09/18 03:29:48;;;;;;;9.10;8.23;;;12.40;95.40;;;11.29;98.01;97866.69;5018994;28;21080;-77
2021/09/18 03:32:15;;;;;;;9.23;8.37;;;12.40;95.10;;;11.24;98.32;97874.66;5018465;28;20460;-78
2021/09/18 03:34:42;;;;;;;9.80;8.90;;;12.40;95.00;;;11.20;98.25;97873.47;5014985;28;20498;-77
2021/09/18 03:37:09;;;;;;;13.13;8.40;;;12.40;95.00;;;11.10;98.41;97870.44;4993125;28;20458;-77
2021/09/18 03:39:37;;;;;;;9.43;8.53;;;12.40;94.90;;;11.15;98.22;97882.25;5017807;28;20890;-79
2021/09/18 03:42:05;;;;;;;9.33;8.57;;;12.30;95.30;;;11.14;98.01;97872.47;5012854;28;20994;-79
2021/09/18 03:44:32;;;;;;;7.63;7.03;;;12.30;95.40;;;11.18;97.70;97878.28;5029990;28;20538;-78
2021/09/18 03:46:59;;;;;;;8.60;7.90;;;12.40;95.20;;;11.17;97.68;97872.03;5013314;28;21017;-79
2021/09/18 03:49:26;;;;;;;9.73;8.90;;;12.40;95.30;;;11.13;97.91;97869.97;5029647;28;21041;-78
2021/09/18 03:51:55;;;;;;;8.73;8.00;;;12.40;95.20;;;11.08;97.99;97864.41;5027585;28;20565;-78
2021/09/18 03:54:22;;;;;;;9.00;8.20;;;12.30;95.30;;;11.01;98.72;97867.19;5019471;28;20463;-78
2021/09/18 03:56:50;;;;;;;10.50;9.47;;;12.20;95.40;;;10.93;98.59;97864.78;5013779;28;20545;-79
2021/09/18 03:59:18;;;;;;;9.33;8.53;;;12.20;95.70;;;10.80;98.85;97868.41;5031523;28;20455;-78
2021/09/18 04:01:45;;;;;;;9.73;8.70;;;12.10;95.60;;;10.74;100.00;97870.94;5013277;28;20452;-78
2021/09/18 04:04:12;;;;;;;9.43;8.60;;;12.00;97.00;;;10.73;100.00;97871.16;5009963;28;20519;-77
2021/09/18 04:06:39;;;;;;;10.83;9.93;;;12.00;98.30;;;10.56;100.00;97870.88;5016471;28;20475;-77
2021/09/18 04:09:06;;;;;;;10.53;9.43;;;11.90;97.60;;;10.43;100.00;97878.03;5030258;28;20882;-77
2021/09/18 04:11:33;;;;;;;10.73;9.80;;;11.80;97.80;;;10.35;100.00;97870.16;5016023;28;20460;-77
2021/09/18 04:14:00;;;;;;;9.80;9.00;;;11.70;99.00;;;10.33;100.00;97870.38;5014034;28;20550;-77
2021/09/18 04:16:28;;;;;;;11.70;10.60;;;11.60;99.70;;;10.24;100.00;97868.16;5014533;28;20467;-77
2021/09/18 04:18:55;;;;;;;13.73;10.10;;;11.50;99.90;;;10.21;100.00;97880.22;5012889;28;20502;-77
2021/09/18 04:21:22;;;;;;;13.23;9.97;;;11.50;99.90;;;10.14;100.00;97871.31;5030710;28;20448;-79
2021/09/18 04:23:50;;;;;;;9.57;8.67;;;11.40;99.90;;;10.01;100.00;97864.97;5013275;28;20471;-76
2021/09/18 04:26:17;;;;;;;12.27;11.27;;;11.40;99.90;;;10.09;100.00;97879.22;5017380;28;21337;-77
2021/09/18 04:28:45;;;;;;;13.23;12.03;;;11.30;99.90;;;10.17;100.00;97879.81;5011092;28;20476;-77
2021/09/18 04:31:12;;;;;;;12.10;11.00;;;11.40;99.90;;;10.06;100.00;97877.78;5041951;28;20463;-78
2021/09/18 04:33:40;;;;;;;13.57;12.37;;;11.30;99.90;;;10.03;100.00;97876.38;5000483;28;20506;-77
2021/09/18 04:36:07;;;;;;;12.50;11.30;;;11.30;99.90;;;9.87;100.00;97893.88;5003295;28;20458;-77
2021/09/18 04:38:35;;;;;;;13.73;12.37;;;11.20;99.90;;;9.91;100.00;97897.78;5030339;28;21935;-77
2021/09/18 04:41:02;;;;;;;14.60;13.10;;;11.10;99.90;;;9.77;100.00;97906.97;5016055;28;20522;-77
2021/09/18 04:43:28;;;;;;;13.43;12.30;;;11.10;99.90;;;9.63;100.00;97901.66;5012980;28;20448;-78
2021/09/18 04:45:56;;;;;;;12.73;11.53;;;11.00;99.90;;;9.51;100.00;97900.63;5010293;28;20452;-77
2021/09/18 04:48:23;;;;;;;13.33;12.03;;;10.80;99.90;;;9.46;100.00;97895.88;5011626;28;20848;-77
2021/09/18 04:50:52;;;;;;;13.47;12.07;;;10.80;99.90;;;9.38;100.00;97892.56;5028319;28;20459;-78
2021/09/18 04:53:19;;;;;;;12.70;11.60;;;10.70;99.90;;;9.12;100.00;97878.09;5010184;28;20533;-78
2021/09/18 04:55:46;;;;;;;12.23;11.03;;;10.70;99.90;;;9.23;100.00;97895.50;4993266;28;20885;-79
2021/09/18 04:58:14;;;;;;;13.40;12.00;;;10.60;99.90;;;9.28;100.00;97896.53;5008352;28;20971;-80
2021/09/18 05:00:41;;;;;;;14.10;12.83;;;10.60;99.90;;;9.43;100.00;97903.53;5008167;28;20464;-77
2021/09/18 05:03:08;;;;;;;14.70;12.83;;;10.70;99.90;;;9.44;100.00;97897.13;5015815;28;21186;-77
2021/09/18 05:05:35;;;;;;;13.93;12.53;;;10.70;99.90;;;9.47;100.00;97891.28;5012134;28;20539;-79
2021/09/18 05:08:06;;;;;;;13.80;12.50;;;10.80;99.90;;;9.50;100.00;97902.50;5026240;28;20495;-79
2021/09/18 05:10:33;;;;;;;13.63;12.30;;;10.80;99.90;;;9.50;100.00;97899.78;5014102;28;20535;-77
2021/09/18 05:13:02;;;;;;;13.53;12.30;;;10.80;99.90;;;9.56;100.00;97908.09;5008110;28;20447;-78
2021/09/18 05:15:29;;;;;;;13.47;12.27;;;10.80;99.90;;;9.61;100.00;97906.41;5011042;28;20550;-79
2021/09/18 05:17:56;;;;;;;14.83;13.43;;;10.90;99.90;;;9.81;100.00;97904.69;5009117;28;20451;-77
2021/09/18 05:20:23;;;;;;;16.00;12.70;;;11.00;99.90;;;9.85;100.00;97909.44;5013111;28;20483;-77
2021/09/18 05:22:50;;;;;;;14.93;13.50;;;11.10;99.90;;;9.94;100.00;97917.31;5005446;28;20451;-78
2021/09/18 05:25:19;;;;;;;14.33;12.00;;;11.20;99.90;;;10.04;100.00;97906.88;5012383;28;20447;-77
2021/09/18 05:27:46;;;;;;;12.53;11.43;;;11.20;99.90;;;10.26;100.00;97904.69;5013284;28;20467;-79
2021/09/18 05:30:14;;;;;;;13.30;12.00;;;11.40;99.90;;;10.40;100.00;97902.75;5013025;28;20486;-77
2021/09/18 05:32:41;;;;;;;12.40;11.20;;;11.50;99.90;;;10.34;100.00;97909.00;5009186;28;20826;-78
2021/09/18 05:35:09;;;;;;;12.20;10.80;;;11.60;99.90;;;10.36;100.00;97915.00;5012075;28;20509;-80
2021/09/18 05:37:37;;;;;;;12.73;11.47;;;11.60;99.90;;;10.36;100.00;97909.59;5013964;28;20845;-81
2021/09/18 05:40:07;;;;;;;11.70;10.80;;;11.60;99.90;;;10.38;100.00;97918.31;5027612;28;20474;-80
2021/09/18 05:42:38;;;;;;;12.23;11.23;;;11.70;99.90;;;10.43;100.00;97915.84;5014710;28;20459;-81
2021/09/18 05:45:07;;;;;;;12.03;11.03;;;11.70;99.90;;;10.57;100.00;97913.06;5007222;28;20463;-80
2021/09/18 05:47:35;;;;;;;12.87;11.67;;;11.80;99.90;;;10.66;100.00;97914.44;5032030;28;21083;-79
2021/09/18 05:50:02;;;;;;;12.10;11.10;;;11.90;99.90;;;10.75;100.00;97907.72;5018230;28;20509;-79
2021/09/18 05:52:29;;;;;;;12.57;11.37;;;11.90;99.50;;;10.76;100.00;97903.13;5016271;28;20451;-83
2021/09/18 05:54:56;;;;;;;11.37;10.27;;;12.00;98.80;;;11.01;100.00;97930.22;5002057;28;20436;-79
2021/09/18 05:57:23;;;;;;;11.40;10.30;;;12.10;98.20;;;11.15;100.00;97917.38;5012150;28;20456;-80
2021/09/18 05:59:52;;;;;;;11.43;10.43;;;12.20;97.60;;;11.37;99.11;97913.44;5036135;28;20466;-80
2021/09/18 06:02:21;;;;;;;14.77;11.40;;;12.40;96.30;;;11.56;96.46;97909.72;5015032;28;20452;-81
2021/09/18 06:04:49;;;;;;;11.50;10.43;;;12.60;94.10;;;11.80;95.33;97926.13;5016221;28;20496;-78
2021/09/18 06:07:16;;;;;;;13.87;12.30;;;12.80;93.40;;;11.88;94.05;97893.31;5014659;28;20478;-80
2021/09/18 06:09:44;;;;;;;14.30;12.80;;;13.00;92.50;;;12.16;92.76;97908.22;5021316;28;20521;-78
2021/09/18 06:12:11;;;;;;;14.33;13.03;;;13.10;91.50;;;12.42;90.67;97922.44;5017735;28;20533;-79
2021/09/18 06:14:39;;;;;;;12.60;11.27;;;13.40;90.50;;;12.61;89.71;97916.97;5025038;28;20462;-79
2021/09/18 06:17:08;;;;;;;19.33;13.63;;;13.50;90.00;;;12.72;88.29;97915.34;5024122;28;20459;-79
2021/09/18 06:19:35;;;;;;;13.90;12.60;;;13.70;88.70;;;12.87;87.42;97931.19;5038997;28;20460;-79
2021/09/18 06:22:02;;;;;;;12.87;11.57;;;13.80;87.60;;;12.96;86.57;97920.84;5003811;28;20478;-80
2021/09/18 06:24:29;;;;;;;12.23;11.13;;;13.90;86.80;;;13.04;86.03;97926.75;5020200;28;20525;-80
2021/09/18 06:26:56;;;;;;;12.30;11.20;;;14.00;86.20;;;13.23;85.85;97934.78;5038002;28;20490;-81
2021/09/18 06:29:26;;;;;;;11.80;10.80;;;14.20;86.00;;;13.44;85.26;97935.31;5033969;28;20447;-81
2021/09/18 06:31:54;;;;;;;12.33;11.30;;;14.30;85.70;;;13.58;84.09;97928.56;5024189;28;20885;-82
2021/09/18 06:34:22;;;;;;;12.33;10.50;;;14.40;84.90;;;13.77;83.08;97938.44;5019350;28;20479;-80
2021/09/18 06:36:50;;;;;;;11.37;10.27;;;14.60;84.00;;;13.62;82.38;97904.47;5039632;28;20452;-81
2021/09/18 06:39:22;;;;;;;10.83;9.93;;;14.80;83.00;;;13.82;80.65;97912.22;5021577;28;20810;-81
2021/09/18 06:41:51;;;;;;;11.73;10.73;;;14.90;81.50;;;13.65;80.99;97935.75;5022837;28;20546;-81
2021/09/18 06:44:19;;;;;;;12.10;10.90;;;14.90;80.30;;;13.47;82.76;97940.25;5023576;28;20455;-79
2021/09/18 06:46:46;;;;;;;12.83;11.60;;;14.70;80.80;;;13.59;82.90;97932.09;5023042;28;20616;-81
2021/09/18 06:49:13;;;;;;;11.07;10.03;;;14.60;81.90;;;13.71;82.08;97932.91;5032087;28;20538;-82
2021/09/18 06:51:42;;;;;;;10.70;9.80;;;14.70;81.70;;;13.62;82.19;97942.47;5033449;28;20460;-82
2021/09/18 06:54:09;;;;;;;12.03;10.93;;;14.70;81.10;;;13.62;83.26;97930.81;5022152;28;20753;-79
2021/09/18 06:56:36;;;;;;;10.83;9.83;;;14.60;82.00;;;13.34;83.18;97941.25;5019740;28;20553;-79
2021/09/18 06:59:03;;;;;;;11.80;10.60;;;14.50;81.50;;;13.12;85.24;97933.72;5009224;28;20543;-78
2021/09/18 07:01:30;;;;;;;11.77;10.87;;;14.30;82.30;;;13.08;85.32;97937.13;5007651;28;20463;-79
2021/09/18 07:03:58;;;;;;;11.93;10.83;;;14.20;83.00;;;13.11;85.44;97931.22;5008932;28;20533;-77
2021/09/18 07:06:25;;;;;;;13.03;11.83;;;14.20;83.30;;;13.07;86.82;97935.47;5014092;28;20494;-80
2021/09/18 07:08:54;;;;;;;14.20;12.67;;;14.20;84.20;;;13.28;86.25;97932.19;5017153;28;20539;-79
2021/09/18 07:11:22;;;;;;;12.67;11.53;;;14.30;85.00;;;13.52;84.71;97934.94;5019981;28;20451;-82
2021/09/18 07:13:49;;;;;;;12.63;11.63;;;14.40;84.50;;;13.48;83.21;97920.19;5028468;28;21331;-80
2021/09/18 07:16:17;;;;;;;13.77;12.00;;;14.50;83.20;;;13.56;83.75;97938.81;5033447;28;20527;-80
2021/09/18 07:18:44;;;;;;;12.60;11.30;;;14.50;83.00;;;13.63;82.71;97938.69;5041996;28;20443;-79
2021/09/18 07:21:11;;;;;;;11.90;10.90;;;14.60;82.70;;;13.83;82.79;97945.66;5035187;28;20490;-78
2021/09/18 07:23:38;;;;;;;12.20;11.00;;;14.70;82.70;;;13.86;82.13;97929.69;5025937;28;20459;-79
2021/09/18 07:26:07;;;;;;;13.80;12.40;;;14.90;82.30;;;14.00;81.22;97948.44;5009050;28;20466;-79
2021/09/18 07:28:35;;;;;;;12.93;11.83;;;15.00;81.00;;;14.15;80.87;97946.03;5021406;28;20465;-80
2021/09/18 07:31:02;;;;;;;14.00;12.60;;;15.20;80.80;;;14.41;80.77;97945.75;5027602;28;20798;-79
2021/09/18 07:33:29;;;;;;;15.37;13.90;;;15.30;80.80;;;14.64;78.95;97947.53;5021813;28;20981;-80
2021/09/18 07:35:58;;;;;;;15.30;13.80;;;15.50;79.90;;;14.61;78.40;97958.88;5019644;28;20462;-79
2021/09/18 07:38:25;;;;;;;14.87;13.60;;;15.60;79.00;;;14.48;79.54;97953.72;5018364;28;20818;-79
2021/09/18 07:40:56;;;;;;;15.07;13.67;;;15.40;79.50;;;14.62;79.00;97948.84;5029447;28;20447;-80
2021/09/18 07:43:25;;;;;;;14.67;13.10;;;15.50;79.00;;;14.81;79.04;97949.50;5016215;28;20460;-82
2021/09/18 08:11:22;;;;;;;18.80;17.17;;;16.50;75.00;;;15.60;75.14;97941.50;5020483;28;20541;-92
2021/09/18 08:14:02;;;;;;;19.47;17.47;;;16.60;75.20;;;15.79;74.88;97951.03;5002350;28;20484;-89
2021/09/18 08:17:18;;;;;;;20.17;18.17;;;16.60;75.20;;;15.43;74.95;97915.94;5029717;28;20539;-91
2021/09/18 08:19:53;;;;;;;21.20;19.23;;;16.60;75.00;;;15.85;74.16;97955.47;5038750;28;20477;-90
2021/09/18 08:23:09;;;;;;;21.20;19.30;;;16.80;74.70;;;15.85;73.62;97941.84;5027638;28;20547;-89
2021/09/18 08:32:41;;;;;;;21.07;19.03;;;16.80;73.60;;;16.13;73.42;97966.50;5025258;28;20529;-90
2021/09/18 08:37:58;;;;;;;19.53;17.70;;;17.20;74.30;;;16.31;72.98;97935.38;5005299;28;20524;-90
2021/09/18 08:40:40;;;;;;;21.90;19.90;;;17.20;73.50;;;16.09;73.38;97957.97;5004790;28;20472;-90
2021/09/18 08:46:07;;;;;;;20.50;18.40;;;17.20;73.10;;;16.45;72.24;97948.56;5020585;28;20502;-87
2021/09/18 08:48:46;;;;;;;21.17;19.17;;;17.40;72.80;;;16.90;70.97;97957.50;5031715;28;20489;-88
2021/09/18 08:51:21;;;;;;;20.53;18.40;;;17.60;72.40;;;16.90;70.53;97947.41;5024276;28;20490;-88
2021/09/18 08:53:53;;;;;;;21.10;19.00;;;17.90;71.80;;;17.35;69.38;97958.19;5031645;28;20459;-89
2021/09/18 08:56:25;;;;;;;20.17;18.27;;;18.10;71.30;;;17.54;68.96;97951.25;5009131;28;20471;-88
2021/09/18 08:59:07;;;;;;;22.17;19.90;;;18.30;70.80;;;17.34;68.52;97945.63;5039224;28;20451;-89
2021/09/18 09:01:47;;;;;;;21.90;19.70;;;18.50;69.80;;;17.11;70.28;97945.72;5028382;28;20466;-88
2021/09/18 09:04:19;;;;;;;21.20;19.30;;;18.30;70.20;;;17.13;69.87;97950.94;5025983;28;20482;-87
2021/09/18 09:07:00;;;;;;;20.27;18.50;;;18.20;69.80;;;17.25;69.49;97962.50;5027877;28;20711;-88
2021/09/18 09:09:51;;;;;;;19.80;18.00;;;18.30;69.90;;;17.51;68.41;97940.81;5030816;28;20462;-86
2021/09/18 09:12:34;;;;;;;20.53;18.63;;;18.30;70.00;;;17.65;67.91;97943.09;5028928;28;20452;-87
2021/09/18 09:15:21;;;;;;;20.67;18.77;;;18.60;69.50;;;17.37;69.79;97958.78;5021629;28;20559;-88
2021/09/18 09:17:55;;;;;;;22.43;20.23;;;18.40;69.70;;;17.27;68.87;97957.59;5039410;28;20892;-88
2021/09/18 09:20:30;;;;;;;20.73;18.90;;;18.40;68.90;;;17.42;68.98;97951.41;5022141;28;20900;-88
2021/09/18 09:23:02;;;;;;;20.73;18.57;;;18.40;69.20;;;17.46;68.57;97951.72;5019505;28;20659;-88
2021/09/18 09:25:34;;;;;;;21.80;19.73;;;18.50;69.30;;;17.06;70.24;97945.69;5017259;28;20621;-89
2021/09/18 09:28:36;;;;;;;21.50;19.43;;;18.30;69.20;;;17.00;69.43;97924.91;5038915;28;20456;-88
2021/09/18 09:31:23;;;;;;;21.90;20.00;;;18.20;69.80;;;17.09;70.18;97938.88;5013460;28;20467;-88
2021/09/18 09:34:06;;;;;;;19.60;17.90;;;18.20;69.80;;;17.27;70.33;97952.13;5028675;28;20483;-89
2021/09/18 09:36:43;;;;;;;21.70;19.57;;;18.30;70.00;;;17.26;70.90;97945.03;5037806;28;20439;-89
2021/09/18 09:42:05;;;;;;;22.30;20.20;;;18.20;70.00;;;17.31;69.55;97940.69;5029792;28;20467;-89
2021/09/18 09:44:37;;;;;;;21.40;19.20;;;18.30;69.70;;;17.42;69.96;97958.81;5027319;28;20451;-88
2021/09/18 09:47:18;;;;;;;20.43;18.43;;;18.40;69.80;;;17.39;68.84;97960.13;5033484;28;20456;-88
2021/09/18 09:49:57;;;;;;;23.70;21.20;;;18.40;69.20;;;17.28;69.36;97947.47;5022348;28;20486;-88
2021/09/18 09:52:36;;;;;;;25.07;22.60;;;18.30;69.10;;;17.64;67.94;97949.66;5037671;28;20488;-89
2021/09/18 09:55:21;;;;;;;22.17;20.10;;;18.40;68.60;;;17.74;67.99;97952.47;5021085;28;20534;-89
2021/09/18 09:57:59;;;;;;;25.37;22.77;;;18.60;68.80;;;17.80;67.00;97950.56;5022711;28;20447;-87
2021/09/18 10:03:47;;;;;;;26.80;24.20;;;18.70;67.90;;;17.95;66.31;97945.19;5047194;28;20553;-89
2021/09/18 10:06:20;;;;;;;28.43;25.53;;;18.90;67.50;;;18.23;64.54;97928.66;5019822;28;20490;-88
2021/09/18 10:08:55;;;;;;;25.70;23.17;;;19.20;66.50;;;18.47;63.93;97933.69;5008380;28;20501;-88
2021/09/18 10:14:28;;;;;;;25.47;23.10;;;19.40;65.80;;;18.82;63.73;97943.03;5017166;28;20572;-87
2021/09/18 10:17:10;;;;;;;24.87;22.33;;;19.60;66.20;;;19.10;62.49;97941.72;5028633;28;20936;-89
2021/09/18 10:25:39;;;;;;;27.00;24.30;;;20.20;63.60;;;19.42;59.44;97912.41;5031823;28;20447;-87
2021/09/18 10:28:25;;;;;;;26.17;23.80;;;20.40;63.00;;;19.56;59.16;97931.03;5022229;28;20474;-89
2021/09/18 10:33:54;;;;;;;24.53;22.27;;;20.30;62.40;;;19.47;59.54;97915.13;5036494;28;20479;-88
2021/09/18 10:36:42;;;;;;;24.43;22.23;;;20.30;62.60;;;19.66;59.45;97926.34;5035229;28;20825;-87
2021/09/18 10:39:21;;;;;;;24.30;22.07;;;20.60;62.30;;;19.39;59.08;97932.16;5020602;28;20502;-87
2021/09/18 10:42:55;;;;;;;23.73;21.63;;;20.40;61.60;;;19.45;59.31;97933.78;5023075;28;20513;-88
2021/09/18 10:45:48;;;;;;;20.13;18.03;;;20.40;61.60;;;19.98;59.30;97932.59;5035209;28;20470;-88
2021/09/18 10:48:57;;;;;;;20.77;18.80;;;20.70;62.40;;;19.57;60.05;97929.94;5023439;28;20482;-89
2021/09/18 10:51:45;;;;;;;20.07;18.23;;;20.50;62.00;;;19.47;59.34;97933.50;5039162;28;20446;-90
2021/09/18 10:54:19;;;;;;;20.03;18.13;;;20.50;61.50;;;19.56;59.12;97945.53;5037646;28;20467;-90
2021/09/18 10:57:10;;;;;;;22.53;20.30;;;20.50;61.50;;;19.87;57.49;97937.28;5046993;28;20470;-89
2021/09/18 11:00:12;;;;;;;21.80;19.70;;;20.70;60.80;;;20.12;56.75;97912.81;5025883;28;20454;-90
2021/09/18 11:02:48;;;;;;;20.93;18.83;;;20.90;60.30;;;20.32;55.05;97920.94;5026171;28;20455;-88
2021/09/18 11:05:59;;;;;;;20.90;18.87;;;21.20;59.50;;;19.59;56.54;97925.81;5035218;28;21008;-88
2021/09/18 11:15:15;;;;;;;16.60;15.20;;;20.30;61.00;;;19.74;57.57;97924.16;5055945;28;20481;-88
2021/09/18 11:17:57;;;;;;;13.67;12.47;;;20.60;60.40;;;20.12;56.40;97921.84;5052702;28;20469;-90
2021/09/18 11:20:28;;;;;;;14.13;12.97;;;20.90;59.80;;;20.77;54.64;97914.63;5061596;28;20510;-89
2021/09/18 11:23:06;;;;;;;15.70;14.00;;;21.30;59.80;;;20.25;55.28;97925.91;5043591;28;20454;-88
2021/09/18 11:25:47;;;;;;;15.57;14.00;;;21.30;59.20;;;19.95;55.21;97905.75;5044273;28;20450;-88
2021/09/18 11:31:19;;;;;;;14.47;13.17;;;21.10;59.00;;;21.03;51.93;97901.56;5048170;28;20450;-88